San Francisco, California
Current Conditions -  °F | °C
As of 7:56 PM on Sunday 21 Dec 2014 (Local Time) from KSFO Reporting Station
Scattered Clouds Scattered Clouds  
Wind Chill: 60°   Ceiling: Unl
Heat Index: 60°   Visibility: 10mi
Dew Point: 59°   Wind: 17mph
Humidity: 96%   Direction: 280°W
Pressure: 30.27"   Gusts: NA
Location:  37.78°N, 122.42°W
Report Text: KSFO 220356Z 28015KT 10SM FEW007 SCT009 SCT018 16/15 A3027 RMK AO2 SLP251 T01560150
Loading
Personal Weather Stations






























Interactive Weather Map New forecast layout! Learn more

10-Day Weather Forecast

Advertisements
Track Severe Weather on mobile